Time;durP1;ratioP1;P1;durP2;ratioP2;P2;SDS_P1;SDS_P2;PMS_P1;PMS_P2;Temp;Humidity;BMP_temperature;BMP_pressure;BME280_temperature;BME280_humidity;BME280_pressure;Samples;Min_cycle;Max_cycle;Signal;HPM_P1;HPM_P2
2023/11/10 00:00:53;;;;;;;7.45;4.82;;;;;;;4.08;nan;94822.72;2041614;29;20067;-52
2023/11/10 00:01:54;;;;;;;6.47;4.72;;;;;;;4.09;nan;94819.25;2041630;29;20052;-53
2023/11/10 00:02:55;;;;;;;6.38;4.13;;;;;;;4.10;nan;94811.50;2041611;29;20066;-53
2023/11/10 00:03:56;;;;;;;6.75;4.43;;;;;;;4.13;nan;94818.25;2041906;29;20055;-52
2023/11/10 00:04:57;;;;;;;8.18;4.53;;;;;;;4.17;nan;94814.63;2041596;29;20056;-52
2023/11/10 00:05:59;;;;;;;7.18;4.07;;;;;;;4.19;nan;94805.97;2041929;29;20050;-53
2023/11/10 00:07:00;;;;;;;6.68;4.07;;;;;;;4.22;nan;94799.03;2041807;29;20031;-53
2023/11/10 00:08:01;;;;;;;6.20;4.20;;;;;;;4.15;nan;94807.00;2042029;29;20407;-53
2023/11/10 00:09:04;;;;;;;7.65;4.60;;;;;;;4.11;nan;94808.00;2041575;29;20055;-53
2023/11/10 00:10:06;;;;;;;6.45;4.75;;;;;;;4.07;nan;94806.47;2041960;29;20054;-53
2023/11/10 00:11:07;;;;;;;6.30;4.72;;;;;;;3.91;nan;94803.69;2042186;29;20058;-53
2023/11/10 00:12:09;;;;;;;8.57;4.60;;;;;;;3.84;nan;94801.44;2041970;29;20056;-53
2023/11/10 00:13:10;;;;;;;6.18;4.38;;;;;;;3.80;nan;94792.19;2042183;29;20059;-53
2023/11/10 00:14:11;;;;;;;6.80;4.50;;;;;;;3.82;nan;94788.63;2041256;29;20063;-53
2023/11/10 00:15:12;;;;;;;8.63;4.68;;;;;;;3.83;nan;94787.75;2041570;29;20060;-53
2023/11/10 00:16:14;;;;;;;6.72;4.80;;;;;;;3.86;nan;94785.06;2041924;29;20396;-53
2023/11/10 00:17:16;;;;;;;7.28;4.25;;;;;;;3.88;nan;94777.31;2041925;29;20063;-53
2023/11/10 00:18:17;;;;;;;5.97;3.50;;;;;;;4.02;nan;94776.75;2041803;29;20047;-53
2023/11/10 00:19:18;;;;;;;6.93;3.85;;;;;;;3.96;nan;94780.41;2041561;29;20051;-53
2023/11/10 00:20:19;;;;;;;5.97;4.50;;;;;;;3.89;nan;94776.41;2041832;29;20043;-53
2023/11/10 00:21:20;;;;;;;6.38;4.20;;;;;;;3.84;nan;94779.16;2041541;29;20059;-53
2023/11/10 00:22:21;;;;;;;6.50;4.22;;;;;;;3.81;nan;94776.72;2041198;29;20503;-53
2023/11/10 00:23:22;;;;;;;6.45;4.15;;;;;;;3.88;nan;94774.75;2042190;29;20062;-53
2023/11/10 00:24:23;;;;;;;5.93;4.18;;;;;;;3.93;nan;94777.97;2041598;29;20392;-53
2023/11/10 00:25:24;;;;;;;6.50;4.07;;;;;;;3.90;nan;94778.91;2041880;29;20062;-53
2023/11/10 00:26:25;;;;;;;6.60;4.13;;;;;;;3.81;nan;94776.72;2042133;29;20388;-53
2023/11/10 00:27:27;;;;;;;5.63;3.83;;;;;;;3.75;nan;94775.22;2041770;29;20047;-53
2023/11/10 00:28:28;;;;;;;5.88;3.85;;;;;;;3.70;nan;94777.13;2041897;29;20047;-53
2023/11/10 00:29:29;;;;;;;6.07;4.30;;;;;;;3.64;nan;94774.81;2041949;29;20059;-53
2023/11/10 00:30:30;;;;;;;6.45;3.92;;;;;;;3.57;nan;94770.81;2041885;29;20047;-53
2023/11/10 00:31:31;;;;;;;6.30;3.60;;;;;;;3.57;nan;94772.56;2042009;29;20044;-53
2023/11/10 00:32:36;;;;;;;5.75;4.10;;;;;;;3.60;nan;94775.00;2041972;29;20059;-53
2023/11/10 00:33:37;;;;;;;6.85;4.30;;;;;;;3.55;nan;94770.03;2041715;29;20062;-54
2023/11/10 00:34:39;;;;;;;5.35;3.75;;;;;;;3.49;nan;94762.59;2041799;29;20047;-53
2023/11/10 00:35:40;;;;;;;7.80;4.25;;;;;;;3.47;nan;94766.94;2041480;29;20058;-53
2023/11/10 00:36:41;;;;;;;7.00;4.40;;;;;;;3.42;nan;94759.44;2041749;29;20063;-53
2023/11/10 00:37:42;;;;;;;6.25;4.32;;;;;;;3.36;nan;94762.22;2042054;29;20070;-52
2023/11/10 00:38:44;;;;;;;7.07;3.83;;;;;;;3.32;nan;94763.25;2041666;29;20048;-52
2023/11/10 00:39:45;;;;;;;5.75;4.22;;;;;;;3.39;nan;94758.69;2041788;29;20059;-52
2023/11/10 00:40:46;;;;;;;6.57;3.90;;;;;;;3.35;nan;94755.44;2033266;29;20063;-53
2023/11/10 00:41:48;;;;;;;5.80;4.20;;;;;;;3.38;nan;94757.88;2032661;29;20048;-52
2023/11/10 00:42:49;;;;;;;7.28;4.70;;;;;;;3.31;nan;94749.59;2041615;29;20056;-52
2023/11/10 00:43:50;;;;;;;8.93;4.78;;;;;;;3.30;nan;94752.19;2041400;29;20051;-52
2023/11/10 00:44:52;;;;;;;6.57;4.60;;;;;;;3.22;nan;94749.09;2041681;29;20055;-53
2023/11/10 00:45:56;;;;;;;6.70;4.70;;;;;;;3.14;nan;94751.13;2041880;29;20040;-52
2023/11/10 00:46:57;;;;;;;7.28;5.15;;;;;;;3.06;nan;94746.28;2041586;29;20055;-53
2023/11/10 00:47:58;;;;;;;6.13;4.20;;;;;;;3.00;nan;94738.81;2033263;29;20059;-52
2023/11/10 00:48:59;;;;;;;6.10;4.35;;;;;;;2.99;nan;94739.69;2033289;29;20043;-53
2023/11/10 00:50:00;;;;;;;6.70;4.30;;;;;;;2.99;nan;94740.53;2041755;29;20209;-53
2023/11/10 00:51:02;;;;;;;7.53;4.70;;;;;;;3.03;nan;94738.69;2041802;29;20059;-53
2023/11/10 00:52:04;;;;;;;7.43;4.75;;;;;;;3.01;nan;94746.44;2041656;29;20381;-54
2023/11/10 00:53:05;;;;;;;6.82;4.13;;;;;;;3.01;nan;94751.56;2041220;29;20063;-53
2023/11/10 00:54:06;;;;;;;7.80;4.05;;;;;;;2.97;nan;94749.19;2033599;29;20052;-53
2023/11/10 00:55:07;;;;;;;8.02;4.32;;;;;;;2.98;nan;94741.44;2025518;29;20095;-53
2023/11/10 00:56:09;;;;;;;6.30;4.43;;;;;;;2.99;nan;94743.09;2033136;29;20056;-54
2023/11/10 00:57:10;;;;;;;6.22;3.95;;;;;;;2.99;nan;94737.13;2041709;29;20145;-53
2023/11/10 00:58:11;;;;;;;7.85;4.70;;;;;;;2.92;nan;94743.41;2041655;29;20055;-54
2023/11/10 00:59:12;;;;;;;5.85;4.15;;;;;;;2.86;nan;94749.56;2032893;29;20056;-53
2023/11/10 01:00:13;;;;;;;6.32;3.88;;;;;;;2.84;nan;94748.81;2033544;29;20052;-52
2023/11/10 01:01:14;;;;;;;6.88;3.90;;;;;;;2.82;nan;94755.72;2033013;29;20052;-53
2023/11/10 01:02:15;;;;;;;6.85;4.57;;;;;;;2.80;nan;94747.25;2025450;29;20059;-53
2023/11/10 01:03:17;;;;;;;5.05;3.25;;;;;;;2.90;nan;94740.06;2033330;29;20040;-52
2023/11/10 01:04:18;;;;;;;5.45;3.38;;;;;;;3.02;nan;94739.56;2041824;29;20059;-52
2023/11/10 01:05:21;;;;;;;6.65;3.83;;;;;;;3.01;nan;94740.47;2041646;29;20039;-53
2023/11/10 01:06:22;;;;;;;6.20;4.15;;;;;;;3.00;nan;94739.66;2042020;29;20494;-52
2023/11/10 01:07:23;;;;;;;5.85;3.85;;;;;;;2.98;nan;94746.56;2041985;29;20054;-53
2023/11/10 01:08:25;;;;;;;4.28;3.22;;;;;;;2.96;nan;94748.34;2041488;29;20052;-53
2023/11/10 01:09:26;;;;;;;4.85;2.85;;;;;;;2.97;nan;94746.63;2041037;29;20056;-53
2023/11/10 01:10:27;;;;;;;7.63;3.70;;;;;;;3.00;nan;94733.69;2041264;29;20060;-53
2023/11/10 01:11:28;;;;;;;5.53;3.13;;;;;;;3.11;nan;94726.41;2041924;29;20055;-53
2023/11/10 01:12:30;;;;;;;4.32;2.78;;;;;;;3.16;nan;94729.66;2041349;29;20067;-52
2023/11/10 01:13:32;;;;;;;4.88;3.40;;;;;;;3.15;nan;94737.38;2041896;29;20133;-53
2023/11/10 01:14:33;;;;;;;5.68;3.78;;;;;;;3.14;nan;94738.28;2041373;29;20407;-53
2023/11/10 01:15:34;;;;;;;5.22;3.65;;;;;;;3.11;nan;94736.69;2041390;29;20051;-53
2023/11/10 01:16:36;;;;;;;5.75;3.33;;;;;;;3.13;nan;94739.16;2041620;29;20044;-52
2023/11/10 01:17:39;;;;;;;7.00;3.60;;;;;;;3.08;nan;94727.38;2033116;29;20056;-53
2023/11/10 01:18:40;;;;;;;4.82;3.28;;;;;;;3.11;nan;94731.53;2033959;29;20055;-53
2023/11/10 01:19:42;;;;;;;6.10;3.33;;;;;;;3.09;nan;94734.16;2043329;29;20397;-53
2023/11/10 01:20:43;;;;;;;5.25;3.60;;;;;;;3.11;nan;94736.69;2043194;29;20040;-53
2023/11/10 01:21:46;;;;;;;5.80;3.50;;;;;;;3.14;nan;94718.59;2043233;29;20495;-53
2023/11/10 01:22:47;;;;;;;5.38;3.40;;;;;;;3.20;nan;94710.66;2043273;29;20052;-53
2023/11/10 01:23:50;;;;;;;6.57;3.70;;;;;;;3.21;nan;94727.75;2043497;29;20040;-53
2023/11/10 01:24:51;;;;;;;4.90;2.95;;;;;;;3.17;nan;94733.03;2043121;29;20542;-53
2023/11/10 01:25:52;;;;;;;3.97;2.15;;;;;;;3.19;nan;94737.22;2042813;29;20059;-53
2023/11/10 01:26:53;;;;;;;5.65;2.92;;;;;;;3.22;nan;94726.84;2043112;29;20064;-53
2023/11/10 01:27:55;;;;;;;5.65;3.20;;;;;;;3.21;nan;94708.94;2042777;29;20055;-53
2023/11/10 01:28:56;;;;;;;4.43;3.28;;;;;;;3.31;nan;94705.97;2043480;29;20043;-52
2023/11/10 01:29:57;;;;;;;5.47;3.63;;;;;;;3.43;nan;94709.75;2042710;29;20408;-53
2023/11/10 01:30:58;;;;;;;5.22;2.88;;;;;;;3.55;nan;94731.53;2034905;29;20497;-53
2023/11/10 01:32:00;;;;;;;6.43;3.33;;;;;;;3.58;nan;94743.41;2026754;29;20071;-53
2023/11/10 01:33:01;;;;;;;5.43;2.67;;;;;;;3.63;nan;94741.50;2035014;29;20048;-52
2023/11/10 01:34:02;;;;;;;5.95;2.35;;;;;;;3.70;nan;94735.22;2042814;29;20055;-53
2023/11/10 01:35:03;;;;;;;5.32;3.00;;;;;;;3.90;nan;94716.41;2043049;29;20048;-53
2023/11/10 01:36:05;;;;;;;4.72;2.78;;;;;;;3.91;nan;94724.06;2043219;29;20043;-53
2023/11/10 01:37:06;;;;;;;3.60;2.38;;;;;;;3.90;nan;94716.41;2043268;29;20051;-53
2023/11/10 01:38:08;;;;;;;4.22;2.67;;;;;;;3.95;nan;94717.06;2042999;29;20062;-53
2023/11/10 01:39:09;;;;;;;3.78;2.40;;;;;;;3.94;nan;94705.13;2042744;29;20519;-53
2023/11/10 01:40:11;;;;;;;4.50;2.60;;;;;;;3.93;nan;94711.19;2043120;29;20087;-53
2023/11/10 01:41:15;;;;;;;4.10;2.78;;;;;;;3.90;nan;94707.00;2034519;29;20056;-53
2023/11/10 01:42:16;;;;;;;4.18;2.65;;;;;;;3.86;nan;94710.59;2035008;29;20416;-52
2023/11/10 01:43:17;;;;;;;8.10;3.15;;;;;;;3.81;nan;94698.84;2043271;29;20044;-53
2023/11/10 01:44:18;;;;;;;3.85;2.65;;;;;;;3.77;nan;94700.72;2043267;29;20047;-53
2023/11/10 01:45:19;;;;;;;4.28;2.78;;;;;;;3.74;nan;94705.94;2043088;29;20403;-53
2023/11/10 01:46:28;;;;;;;4.53;2.83;;;;;;;3.72;nan;94707.75;2043012;29;20047;-53
2023/11/10 01:47:30;;;;;;;4.13;2.78;;;;;;;3.68;nan;94696.75;2027046;29;20044;-53
2023/11/10 01:48:31;;;;;;;6.68;2.97;;;;;;;3.70;nan;94707.81;2019289;29;20056;-53
2023/11/10 01:49:33;;;;;;;4.05;2.28;;;;;;;3.69;nan;94707.88;2026884;29;20052;-53
2023/11/10 01:50:34;;;;;;;5.30;2.50;;;;;;;3.63;nan;94703.81;2034600;29;20055;-53
2023/11/10 01:51:35;;;;;;;5.32;2.80;;;;;;;3.62;nan;94701.31;2034453;29;20059;-53
2023/11/10 01:52:38;;;;;;;5.38;3.03;;;;;;;3.62;nan;94701.31;2034715;29;20040;-53
2023/11/10 01:53:40;;;;;;;4.50;2.45;;;;;;;3.62;nan;94697.03;2034552;29;20048;-53
2023/11/10 01:54:41;;;;;;;3.75;2.78;;;;;;;3.62;nan;94702.16;2026828;29;20135;-53
2023/11/10 01:55:47;;;;;;;6.45;3.38;;;;;;;3.59;nan;94691.19;2034797;29;20052;-53
2023/11/10 01:56:48;;;;;;;4.57;2.30;;;;;;;3.60;nan;94696.25;2026797;29;20519;-53
2023/11/10 01:57:49;;;;;;;4.47;2.50;;;;;;;3.61;nan;94699.63;2026690;29;20436;-53
2023/11/10 01:58:50;;;;;;;4.50;2.47;;;;;;;3.60;nan;94691.09;2011401;29;20064;-53
2023/11/10 01:59:54;;;;;;;8.18;3.00;;;;;;;3.63;nan;94696.09;2011698;29;20102;-53
2023/11/10 02:00:55;;;;;;;3.92;2.85;;;;;;;3.64;nan;94697.81;2018489;29;20057;-54
2023/11/10 02:01:57;;;;;;;5.53;3.30;;;;;;;3.67;nan;94696.84;2003767;29;20126;-52
2023/11/10 02:03:04;;;;;;;4.05;2.70;;;;;;;3.65;nan;94698.63;2018663;29;20551;-52
2023/11/10 02:04:06;;;;;;;6.43;3.42;;;;;;;3.63;nan;94696.09;2035429;29;20048;-53
2023/11/10 02:05:10;;;;;;;5.03;2.90;;;;;;;3.65;nan;94699.47;2043170;29;20059;-52
2023/11/10 02:06:11;;;;;;;5.32;3.00;;;;;;;3.70;nan;94697.53;2034611;29;20389;-53
2023/11/10 02:07:12;;;;;;;4.35;2.90;;;;;;;3.75;nan;94689.66;2034683;29;20056;-52
2023/11/10 02:08:13;;;;;;;5.88;3.00;;;;;;;3.75;nan;94687.91;2041994;29;20055;-53
2023/11/10 02:09:14;;;;;;;4.32;2.65;;;;;;;3.78;nan;94698.97;2026299;29;20052;-52
2023/11/10 02:10:15;;;;;;;5.57;2.78;;;;;;;3.80;nan;94698.00;2018848;29;20057;-53
2023/11/10 02:11:17;;;;;;;4.95;2.70;;;;;;;3.81;nan;94691.13;2033988;29;20060;-53
2023/11/10 02:12:18;;;;;;;3.97;2.80;;;;;;;3.83;nan;94694.47;2033823;29;20055;-52
2023/11/10 02:13:20;;;;;;;4.57;2.95;;;;;;;3.85;nan;94693.50;2026583;29;20053;-53
2023/11/10 02:14:21;;;;;;;5.15;2.95;;;;;;;3.84;nan;94696.97;2026304;29;20080;-53
2023/11/10 02:15:23;;;;;;;5.28;2.85;;;;;;;3.88;nan;94695.13;2033786;29;20072;-52
2023/11/10 02:16:25;;;;;;;5.88;3.08;;;;;;;3.88;nan;94693.38;2034268;29;20051;-52
2023/11/10 02:17:26;;;;;;;6.65;3.22;;;;;;;3.93;nan;94686.31;2027323;29;20065;-53
2023/11/10 02:18:27;;;;;;;5.38;2.97;;;;;;;3.93;nan;94670.91;2034538;29;20448;-52
2023/11/10 02:19:28;;;;;;;4.55;3.03;;;;;;;3.97;nan;94687.84;2042472;29;20052;-53
2023/11/10 02:20:29;;;;;;;6.30;2.72;;;;;;;4.01;nan;94682.56;2034455;29;20051;-53
2023/11/10 02:21:30;;;;;;;4.57;3.08;;;;;;;4.03;nan;94680.78;2034143;29;20526;-53
2023/11/10 02:22:31;;;;;;;4.32;3.10;;;;;;;3.98;nan;94679.25;2034197;29;20063;-53
2023/11/10 02:23:32;;;;;;;6.47;3.63;;;;;;;3.92;nan;94678.66;2034486;29;20052;-53
2023/11/10 02:24:33;;;;;;;4.78;3.28;;;;;;;3.92;nan;94670.97;2026578;29;20053;-52
2023/11/10 02:25:35;;;;;;;5.05;3.30;;;;;;;3.91;nan;94671.88;2026295;29;20076;-52
2023/11/10 02:26:36;;;;;;;4.60;2.95;;;;;;;3.92;nan;94664.09;2034323;29;20048;-53
2023/11/10 02:27:37;;;;;;;6.13;3.10;;;;;;;3.95;nan;94671.66;2034514;29;20063;-53
2023/11/10 02:28:40;;;;;;;5.85;3.03;;;;;;;3.94;nan;94666.59;2042705;29;20047;-52
2023/11/10 02:29:41;;;;;;;6.57;2.97;;;;;;;3.95;nan;94666.53;2042646;29;20039;-53
2023/11/10 02:30:43;;;;;;;5.97;3.45;;;;;;;3.97;nan;94671.59;2041687;29;20048;-53
2023/11/10 02:31:44;;;;;;;6.28;3.30;;;;;;;3.92;nan;94666.66;2042725;29;20054;-53
2023/11/10 02:32:46;;;;;;;5.63;3.35;;;;;;;3.90;nan;94665.91;2042629;29;20055;-53
2023/11/10 02:33:47;;;;;;;5.18;3.30;;;;;;;3.90;nan;94657.34;2034159;29;20048;-53
2023/11/10 02:34:51;;;;;;;6.38;3.13;;;;;;;3.91;nan;94661.59;2033793;29;20081;-53
2023/11/10 02:35:52;;;;;;;4.03;2.92;;;;;;;3.92;nan;94663.25;2034152;29;20411;-53
2023/11/10 02:36:53;;;;;;;5.45;3.28;;;;;;;3.95;nan;94663.94;2033577;29;20055;-53
2023/11/10 02:37:55;;;;;;;6.60;3.50;;;;;;;3.92;nan;94658.13;2042926;29;20388;-52
2023/11/10 02:38:56;;;;;;;5.78;3.50;;;;;;;3.89;nan;94653.94;2033485;29;20553;-53
2023/11/10 02:39:57;;;;;;;7.15;3.10;;;;;;;3.91;nan;94659.88;2034097;29;20059;-53
2023/11/10 02:40:58;;;;;;;5.75;2.85;;;;;;;3.88;nan;94649.72;2034390;29;20508;-53
2023/11/10 02:41:59;;;;;;;5.57;3.33;;;;;;;3.88;nan;94651.47;2034234;29;20063;-53
2023/11/10 02:43:02;;;;;;;8.95;2.90;;;;;;;3.88;nan;94656.59;2041948;29;20492;-53
2023/11/10 02:44:03;;;;;;;4.97;3.20;;;;;;;3.88;nan;94652.28;2034003;29;20138;-53
2023/11/10 02:45:05;;;;;;;5.95;3.78;;;;;;;3.88;nan;94654.03;2034745;29;20062;-53
2023/11/10 02:46:06;;;;;;;7.00;3.33;;;;;;;3.88;nan;94652.28;2042542;29;20055;-53
2023/11/10 02:47:07;;;;;;;4.95;2.85;;;;;;;3.88;nan;94646.31;2042589;29;20487;-53
2023/11/10 02:48:09;;;;;;;5.25;3.22;;;;;;;3.84;nan;94645.59;2042469;29;20059;-53
2023/11/10 02:49:10;;;;;;;6.60;3.60;;;;;;;3.85;nan;94638.72;2042802;29;20054;-53
2023/11/10 02:50:11;;;;;;;5.00;3.30;;;;;;;3.86;nan;94643.81;2034044;29;20059;-53
2023/11/10 02:51:13;;;;;;;5.55;3.63;;;;;;;3.86;nan;94637.84;2034168;29;20048;-52
2023/11/10 02:52:14;;;;;;;5.10;3.15;;;;;;;3.84;nan;94635.34;2034354;29;20461;-53
2023/11/10 02:53:15;;;;;;;5.80;3.88;;;;;;;3.82;nan;94634.56;2034229;29;20055;-53
2023/11/10 02:54:17;;;;;;;5.40;3.53;;;;;;;3.83;nan;94636.25;2033696;29;20056;-53
2023/11/10 02:55:18;;;;;;;5.47;3.40;;;;;;;3.80;nan;94631.25;2034276;29;20362;-53
2023/11/10 02:56:20;;;;;;;5.93;3.50;;;;;;;3.84;nan;94637.91;2033140;29;20052;-53
2023/11/10 02:57:21;;;;;;;6.22;3.30;;;;;;;3.83;nan;94641.38;2033779;29;20431;-53
2023/11/10 02:58:22;;;;;;;7.22;3.10;;;;;;;3.85;nan;94642.16;2033995;29;20062;-53
2023/11/10 02:59:23;;;;;;;6.25;3.53;;;;;;;3.87;nan;94644.63;2042649;29;20051;-53
2023/11/10 03:00:25;;;;;;;5.70;3.35;;;;;;;3.87;nan;94648.03;2042188;29;20399;-54
2023/11/10 03:01:27;;;;;;;6.25;3.15;;;;;;;3.88;nan;94646.31;2033522;29;20108;-52
2023/11/10 03:02:28;;;;;;;6.85;3.45;;;;;;;3.89;nan;94651.38;2033529;29;20079;-53
2023/11/10 03:03:29;;;;;;;6.07;3.35;;;;;;;3.88;nan;94652.28;2033531;29;20059;-53
2023/11/10 03:04:30;;;;;;;4.70;3.15;;;;;;;3.91;nan;94643.63;2033442;29;20056;-53
2023/11/10 03:05:31;;;;;;;5.10;2.90;;;;;;;3.92;nan;94642.72;2034250;29;20052;-53
2023/11/10 03:06:32;;;;;;;6.45;3.25;;;;;;;3.93;nan;94639.25;2033985;29;20052;-53
2023/11/10 03:07:33;;;;;;;7.78;3.90;;;;;;;3.92;nan;94646.09;2033138;29;20052;-53
2023/11/10 03:08:34;;;;;;;5.28;3.15;;;;;;;3.91;nan;94641.88;2042233;29;20062;-53
2023/11/10 03:09:35;;;;;;;5.90;3.58;;;;;;;3.88;nan;94634.31;2042297;29;20385;-53
2023/11/10 03:10:36;;;;;;;6.78;3.25;;;;;;;3.92;nan;94628.13;2033923;29;20044;-53
2023/11/10 03:11:38;;;;;;;6.13;3.78;;;;;;;3.88;nan;94625.78;2034265;29;20040;-53
2023/11/10 03:12:39;;;;;;;6.53;3.80;;;;;;;3.87;nan;94624.09;2042514;29;20059;-53
2023/11/10 03:13:41;;;;;;;5.55;3.58;;;;;;;3.82;nan;94631.97;2042374;29;20044;-53
2023/11/10 03:14:42;;;;;;;4.95;3.50;;;;;;;3.81;nan;94635.47;2033927;29;20040;-53
2023/11/10 03:15:43;;;;;;;5.93;3.60;;;;;;;3.82;nan;94636.28;2033659;29;20056;-53
2023/11/10 03:16:44;;;;;;;8.10;3.85;;;;;;;3.85;nan;94641.28;2042132;29;20060;-53
2023/11/10 03:17:47;;;;;;;5.60;3.20;;;;;;;3.85;nan;94641.28;2042278;29;20399;-52
2023/11/10 03:18:50;;;;;;;5.80;3.17;;;;;;;3.88;nan;94639.44;2042489;29;20047;-52
2023/11/10 03:19:51;;;;;;;6.03;3.38;;;;;;;3.87;nan;94637.75;2034090;29;20453;-52
2023/11/10 03:20:52;;;;;;;6.78;3.28;;;;;;;3.88;nan;94641.19;2034025;29;20047;-52
2023/11/10 03:21:53;;;;;;;5.53;3.80;;;;;;;3.84;nan;94629.38;2041797;29;20051;-53
2023/11/10 03:22:54;;;;;;;6.47;3.58;;;;;;;3.87;nan;94637.75;2042491;29;20051;-52
2023/11/10 03:23:55;;;;;;;5.68;3.67;;;;;;;3.88;nan;94625.78;2033090;29;20055;-52
2023/11/10 03:24:56;;;;;;;7.00;4.05;;;;;;;3.89;nan;94632.56;2033835;29;20052;-52
2023/11/10 03:25:57;;;;;;;5.10;3.10;;;;;;;3.91;nan;94630.78;2042285;29;20055;-53
2023/11/10 03:26:58;;;;;;;5.53;3.33;;;;;;;3.90;nan;94634.22;2042338;29;20059;-52
2023/11/10 03:27:59;;;;;;;7.97;4.03;;;;;;;3.87;nan;94632.63;2042503;29;20058;-52
2023/11/10 03:29:02;;;;;;;5.78;3.03;;;;;;;3.87;nan;94624.91;2042186;29;20059;-52
2023/11/10 03:30:04;;;;;;;5.80;3.25;;;;;;;3.84;nan;94627.63;2033850;29;20063;-52
2023/11/10 03:31:07;;;;;;;5.03;3.20;;;;;;;3.84;nan;94631.94;2025665;29;20064;-52
2023/11/10 03:32:08;;;;;;;6.70;3.30;;;;;;;3.82;nan;94638.88;2033528;29;20060;-53
2023/11/10 03:33:11;;;;;;;6.32;3.55;;;;;;;3.82;nan;94642.25;2041657;29;20417;-52
2023/11/10 03:34:12;;;;;;;6.07;3.60;;;;;;;3.80;nan;94638.13;2033041;29;20055;-52
2023/11/10 03:35:13;;;;;;;6.45;3.47;;;;;;;3.78;nan;94627.91;2033706;29;20067;-52
2023/11/10 03:36:14;;;;;;;7.20;4.32;;;;;;;3.78;nan;94642.47;2041842;29;20063;-52
2023/11/10 03:37:15;;;;;;;7.78;3.45;;;;;;;3.74;nan;94637.47;2042618;29;20044;-52
2023/11/10 03:38:16;;;;;;;6.20;3.78;;;;;;;3.74;nan;94634.03;2041932;29;20407;-52
2023/11/10 03:39:18;;;;;;;6.10;3.45;;;;;;;3.73;nan;94629.81;2033586;29;20059;-53
2023/11/10 03:40:20;;;;;;;5.35;3.42;;;;;;;3.77;nan;94626.25;2033521;29;20052;-53
2023/11/10 03:41:21;;;;;;;5.38;3.55;;;;;;;3.94;nan;94626.34;2033438;29;20055;-53
2023/11/10 03:42:22;;;;;;;6.13;3.70;;;;;;;3.89;nan;94627.44;2025963;29;20481;-53
2023/11/10 03:43:24;;;;;;;5.45;3.92;;;;;;;3.89;nan;94625.69;2033832;29;20059;-52
2023/11/10 03:44:26;;;;;;;5.18;3.45;;;;;;;3.86;nan;94612.16;2042071;29;20059;-52
2023/11/10 03:45:27;;;;;;;5.20;3.72;;;;;;;3.88;nan;94625.78;2041975;29;20059;-53
2023/11/10 03:46:28;;;;;;;4.60;3.28;;;;;;;3.89;nan;94623.13;2042315;29;20058;-52
2023/11/10 03:47:29;;;;;;;5.38;3.60;;;;;;;3.86;nan;94628.41;2041598;29;20063;-52
2023/11/10 03:48:30;;;;;;;6.90;4.32;;;;;;;3.87;nan;94613.81;2041900;29;20056;-53
2023/11/10 03:49:33;;;;;;;6.28;3.90;;;;;;;3.85;nan;94631.88;2042371;29;20055;-53
2023/11/10 03:50:34;;;;;;;6.25;3.90;;;;;;;3.85;nan;94618.19;2041205;29;20059;-53
2023/11/10 03:51:35;;;;;;;9.20;4.32;;;;;;;3.85;nan;94620.75;2042338;29;20062;-53
2023/11/10 03:52:36;;;;;;;6.25;4.07;;;;;;;3.87;nan;94622.34;2041580;29;20377;-52
2023/11/10 03:53:40;;;;;;;5.13;3.45;;;;;;;3.85;nan;94626.75;2042133;29;20056;-53
2023/11/10 03:54:41;;;;;;;7.47;4.15;;;;;;;3.87;nan;94631.81;2041896;29;20051;-52
2023/11/10 03:55:43;;;;;;;6.38;3.28;;;;;;;3.86;nan;94630.16;2042417;29;20066;-52
2023/11/10 03:56:45;;;;;;;6.05;3.78;;;;;;;3.84;nan;94629.38;2042256;29;20063;-53
2023/11/10 03:57:46;;;;;;;7.07;3.95;;;;;;;3.84;nan;94629.38;2042109;29;20047;-53
2023/11/10 03:58:48;;;;;;;5.60;3.80;;;;;;;3.84;nan;94611.38;2042142;29;20055;-53
2023/11/10 03:59:49;;;;;;;7.63;3.70;;;;;;;3.86;nan;94619.88;2042235;29;20068;-52
2023/11/10 04:00:50;;;;;;;5.28;3.58;;;;;;;3.87;nan;94622.34;2042310;29;20051;-53
2023/11/10 04:01:51;;;;;;;6.43;3.33;;;;;;;3.92;nan;94617.03;2042071;29;20476;-52
2023/11/10 04:02:53;;;;;;;6.30;4.07;;;;;;;3.88;nan;94615.50;2042190;29;20055;-53
2023/11/10 04:03:54;;;;;;;4.57;3.22;;;;;;;3.92;nan;94620.44;2041733;29;20068;-53
2023/11/10 04:04:55;;;;;;;7.85;3.95;;;;;;;3.91;nan;94610.22;2042198;29;20538;-53
2023/11/10 04:05:56;;;;;;;6.22;4.38;;;;;;;3.88;nan;94616.34;2042092;29;20074;-53
2023/11/10 04:06:57;;;;;;;5.47;3.88;;;;;;;3.87;nan;94611.25;2041278;29;20055;-53
2023/11/10 04:07:59;;;;;;;5.65;3.67;;;;;;;3.89;nan;94618.00;2041642;29;20063;-52
2023/11/10 04:09:01;;;;;;;6.45;4.05;;;;;;;3.90;nan;94618.81;2041236;29;20055;-53
2023/11/10 04:10:03;;;;;;;5.07;3.13;;;;;;;3.88;nan;94613.78;2042039;29;20407;-52
2023/11/10 04:11:04;;;;;;;5.45;3.63;;;;;;;3.88;nan;94615.50;2041911;29;20043;-53
2023/11/10 04:12:06;;;;;;;5.63;3.50;;;;;;;3.88;nan;94616.34;2041973;29;20078;-53
2023/11/10 04:13:07;;;;;;;5.22;3.40;;;;;;;3.88;nan;94615.50;2042136;29;20048;-52
2023/11/10 04:14:11;;;;;;;5.85;3.55;;;;;;;3.87;nan;94613.81;2041683;29;20059;-52
2023/11/10 04:15:12;;;;;;;5.22;3.67;;;;;;;3.83;nan;94613.13;2041611;29;20412;-53
2023/11/10 04:16:21;;;;;;;6.47;3.60;;;;;;;3.82;nan;94621.72;2041326;29;20067;-52
2023/11/10 04:17:22;;;;;;;6.38;3.42;;;;;;;3.79;nan;94616.72;2042167;29;20051;-52
2023/11/10 04:18:26;;;;;;;6.35;3.33;;;;;;;3.74;nan;94619.50;2025630;29;20060;-52
2023/11/10 04:19:29;;;;;;;4.93;3.13;;;;;;;3.70;nan;94623.09;2026874;29;20108;-52
2023/11/10 04:20:30;;;;;;;5.65;3.30;;;;;;;3.68;nan;94624.03;2041793;29;20400;-52
2023/11/10 04:21:31;;;;;;;7.32;3.35;;;;;;;3.62;nan;94619.19;2042183;29;20059;-52
2023/11/10 04:22:33;;;;;;;4.47;3.25;;;;;;;3.59;nan;94624.44;2041791;29;20054;-53
2023/11/10 04:23:34;;;;;;;5.30;3.40;;;;;;;3.63;nan;94621.66;2042110;29;20488;-54
2023/11/10 04:24:35;;;;;;;5.93;3.60;;;;;;;3.62;nan;94620.00;2041637;29;20063;-53
2023/11/10 04:25:36;;;;;;;5.80;2.50;;;;;;;3.61;nan;94625.19;2041866;29;20043;-52
2023/11/10 04:26:37;;;;;;;8.32;3.28;;;;;;;3.52;nan;94616.97;2041395;29;20052;-52
2023/11/10 04:27:41;;;;;;;5.82;3.63;;;;;;;3.49;nan;94619.69;2041773;29;20094;-52
2023/11/10 04:28:43;;;;;;;6.05;3.60;;;;;;;3.47;nan;94613.75;2041374;29;20074;-53
2023/11/10 04:29:44;;;;;;;6.30;3.60;;;;;;;3.54;nan;94619.50;2041598;29;20051;-52
2023/11/10 04:30:45;;;;;;;5.57;3.22;;;;;;;3.46;nan;94619.81;2041595;29;20055;-52
2023/11/10 04:31:46;;;;;;;6.78;3.55;;;;;;;3.47;nan;94616.34;2041255;29;20056;-52
2023/11/10 04:32:47;;;;;;;6.38;3.20;;;;;;;3.44;nan;94611.31;2041738;29;20404;-52
2023/11/10 04:33:48;;;;;;;5.63;3.17;;;;;;;3.44;nan;94613.06;2041742;29;20051;-52
2023/11/10 04:34:49;;;;;;;5.30;3.13;;;;;;;3.44;nan;94610.50;2041858;29;20051;-52
2023/11/10 04:35:50;;;;;;;5.28;3.00;;;;;;;3.40;nan;94614.94;2041773;29;20392;-52
2023/11/10 04:36:51;;;;;;;6.38;3.17;;;;;;;3.38;nan;94619.28;2041617;29;20066;-52
2023/11/10 04:37:52;;;;;;;6.60;3.35;;;;;;;3.36;nan;94626.22;2042065;29;20392;-52
2023/11/10 04:38:54;;;;;;;6.50;3.35;;;;;;;3.34;nan;94629.72;2041885;29;20050;-52
2023/11/10 04:39:55;;;;;;;4.40;3.20;;;;;;;3.30;nan;94624.72;2041286;29;20059;-52
2023/11/10 04:40:57;;;;;;;5.53;3.15;;;;;;;3.28;nan;94629.09;2042011;29;20063;-52
2023/11/10 04:41:58;;;;;;;5.05;2.92;;;;;;;3.31;nan;94623.00;2041423;29;20066;-52
2023/11/10 04:42:59;;;;;;;5.20;3.17;;;;;;;3.30;nan;94635.00;2042002;29;20108;-53
2023/11/10 04:44:01;;;;;;;4.10;2.92;;;;;;;3.28;nan;94631.66;2041884;29;20055;-52
2023/11/10 04:45:02;;;;;;;6.15;3.15;;;;;;;3.29;nan;94633.34;2041774;29;20500;-53
2023/11/10 04:46:04;;;;;;;6.93;3.67;;;;;;;3.30;nan;94640.13;2041708;29;20408;-52
2023/11/10 04:47:05;;;;;;;6.07;3.45;;;;;;;3.30;nan;94642.69;2041723;29;20046;-52
2023/11/10 04:48:06;;;;;;;5.18;3.33;;;;;;;3.28;nan;94641.91;2041666;29;20052;-52
2023/11/10 04:49:09;;;;;;;5.60;3.45;;;;;;;3.31;nan;94643.53;2041709;29;20408;-52
2023/11/10 04:50:12;;;;;;;5.25;3.13;;;;;;;3.31;nan;94641.81;2042044;29;20468;-52
2023/11/10 04:51:13;;;;;;;5.03;3.30;;;;;;;3.33;nan;94643.47;2041908;29;20058;-52
2023/11/10 04:52:15;;;;;;;5.63;3.50;;;;;;;3.34;nan;94642.56;2041825;29;20059;-52
2023/11/10 04:53:16;;;;;;;5.70;3.13;;;;;;;3.37;nan;94645.00;2041758;29;20071;-52
2023/11/10 04:54:17;;;;;;;4.47;2.88;;;;;;;3.32;nan;94637.50;2043321;29;20479;-52
2023/11/10 04:55:18;;;;;;;6.30;2.85;;;;;;;3.37;nan;94634.72;2042547;29;20052;-52
2023/11/10 04:56:19;;;;;;;8.25;3.97;;;;;;;3.37;nan;94645.00;2043659;29;20389;-52
2023/11/10 04:57:21;;;;;;;5.50;3.30;;;;;;;3.41;nan;94646.56;2043725;29;20073;-52
2023/11/10 04:58:22;;;;;;;6.28;2.95;;;;;;;3.41;nan;94641.44;2043393;29;20075;-52
2023/11/10 04:59:23;;;;;;;5.45;3.55;;;;;;;3.40;nan;94644.91;2043518;29;20088;-52
2023/11/10 05:00:24;;;;;;;6.43;3.42;;;;;;;3.39;nan;94645.78;2043080;29;20055;-52